createdAt,value
2022-10-21T00:00:53.692Z,19.95
2022-10-21T00:03:22.975Z,16.50
2022-10-21T00:05:51.860Z,15.60
2022-10-21T00:08:21.993Z,18.42
2022-10-21T00:10:52.573Z,19.45
2022-10-21T00:13:21.031Z,14.63
2022-10-21T00:15:59.985Z,14.75
2022-10-21T00:18:28.344Z,14.75
2022-10-21T00:20:56.519Z,14.13
2022-10-21T00:23:26.379Z,17.05
2022-10-21T00:25:57.729Z,14.20
2022-10-21T00:28:25.852Z,13.20
2022-10-21T00:30:53.922Z,12.95
2022-10-21T00:33:22.469Z,12.00
2022-10-21T00:35:54.348Z,12.00
2022-10-21T00:38:22.903Z,12.65
2022-10-21T00:40:52.496Z,11.93
2022-10-21T00:43:20.589Z,10.40
2022-10-21T00:45:52.413Z,11.57
2022-10-21T00:48:26.229Z,12.38
2022-10-21T00:50:58.409Z,13.23
2022-10-21T00:53:27.773Z,10.70
2022-10-21T00:56:00.971Z,10.50
2022-10-21T00:58:32.577Z,11.82
2022-10-21T01:01:02.989Z,12.32
2022-10-21T01:03:33.345Z,9.38
2022-10-21T01:06:03.745Z,9.00
2022-10-21T01:08:32.008Z,9.68
2022-10-21T01:11:02.817Z,13.75
2022-10-21T01:13:40.419Z,13.93
2022-10-21T01:16:17.956Z,12.00
2022-10-21T01:18:52.132Z,11.20
2022-10-21T01:21:31.427Z,11.02
2022-10-21T01:24:46.614Z,10.90
2022-10-21T01:27:27.072Z,11.20
2022-10-21T01:30:17.321Z,9.95
2022-10-21T01:32:59.930Z,9.52
2022-10-21T01:35:34.654Z,9.05
2022-10-21T01:38:10.484Z,8.80
2022-10-21T01:40:45.232Z,8.43
2022-10-21T01:43:20.191Z,9.88
2022-10-21T01:45:50.284Z,9.88
2022-10-21T01:48:23.303Z,9.23
2022-10-21T01:50:56.676Z,8.48
2022-10-21T01:53:29.806Z,7.40
2022-10-21T01:55:59.895Z,6.78
2022-10-21T01:58:32.341Z,5.47
2022-10-21T02:01:03.301Z,5.78
2022-10-21T02:03:36.784Z,6.07
2022-10-21T02:06:05.065Z,6.32
2022-10-21T02:08:33.204Z,6.38
2022-10-21T02:11:04.780Z,4.88
2022-10-21T02:13:37.991Z,4.38
2022-10-21T02:16:10.112Z,5.97
2022-10-21T02:18:39.491Z,4.78
2022-10-21T02:21:11.403Z,4.85
2022-10-21T02:23:44.521Z,4.30
2022-10-21T02:26:12.703Z,5.15
2022-10-21T02:28:42.063Z,9.73
2022-10-21T02:31:20.145Z,4.30
2022-10-21T02:33:56.981Z,5.22
2022-10-21T02:36:31.435Z,5.07
2022-10-21T02:39:04.063Z,5.78
2022-10-21T02:41:34.177Z,4.82
2022-10-21T02:44:04.394Z,4.32
2022-10-21T02:46:37.768Z,5.47
2022-10-21T02:49:07.447Z,5.72
2022-10-21T02:51:35.821Z,6.22
2022-10-21T02:54:04.073Z,7.45
2022-10-21T02:56:32.286Z,7.40
2022-10-21T02:59:00.303Z,7.05
2022-10-21T03:01:28.450Z,8.85
2022-10-21T03:03:56.749Z,7.28
2022-10-21T03:06:26.155Z,8.43
2022-10-21T03:08:54.260Z,8.00
2022-10-21T03:11:22.394Z,7.97
2022-10-21T03:13:50.370Z,7.22
2022-10-21T03:18:46.319Z,7.93
2022-10-21T03:21:14.341Z,7.78
2022-10-21T03:23:43.708Z,7.97
2022-10-21T03:26:11.750Z,7.47
2022-10-21T03:28:40.253Z,8.25
2022-10-21T03:31:08.268Z,6.60
2022-10-21T03:33:36.265Z,8.52
2022-10-21T03:36:04.632Z,7.38
2022-10-21T03:38:32.678Z,6.05
2022-10-21T03:41:02.207Z,11.43
2022-10-21T03:43:30.256Z,6.45
2022-10-21T03:45:58.364Z,7.18
2022-10-21T03:48:26.469Z,7.93
2022-10-21T03:50:57.077Z,9.02
2022-10-21T03:53:42.249Z,8.52
2022-10-21T03:56:12.579Z,8.82
2022-10-21T03:58:40.968Z,7.28
2022-10-21T04:01:12.916Z,9.20
2022-10-21T04:03:41.499Z,9.05
2022-10-21T04:06:09.551Z,8.90
2022-10-21T04:08:37.662Z,8.13
2022-10-21T04:11:06.150Z,8.85
2022-10-21T04:13:35.754Z,7.00
2022-10-21T04:16:06.360Z,8.00
2022-10-21T04:18:34.492Z,7.20
2022-10-21T04:21:02.706Z,8.60
2022-10-21T04:23:30.774Z,7.70
2022-10-21T04:25:59.000Z,8.70
2022-10-21T04:28:27.124Z,7.07
2022-10-21T04:30:56.572Z,7.05
2022-10-21T04:33:24.834Z,7.20
2022-10-21T04:35:54.730Z,6.28
2022-10-21T04:38:22.871Z,7.07
2022-10-21T04:40:56.831Z,6.68
2022-10-21T04:43:25.004Z,6.45
2022-10-21T04:45:53.707Z,6.30
2022-10-21T04:48:23.428Z,6.40
2022-10-21T04:50:52.931Z,6.38
2022-10-21T04:53:21.771Z,7.10
2022-10-21T04:55:53.039Z,6.25
2022-10-21T04:58:22.169Z,5.80
2022-10-21T05:00:51.320Z,7.55
2022-10-21T05:03:19.593Z,5.57
2022-10-21T05:05:51.989Z,6.57
2022-10-21T05:08:21.317Z,6.90
2022-10-21T05:10:49.633Z,5.43
2022-10-21T05:13:17.702Z,6.38
2022-10-21T05:15:45.730Z,6.75
2022-10-21T05:18:13.751Z,7.07
2022-10-21T05:20:42.361Z,7.38
2022-10-21T05:23:11.896Z,6.32
2022-10-21T05:25:39.960Z,6.75
2022-10-21T05:28:08.129Z,6.85
2022-10-21T05:30:36.143Z,6.10
2022-10-21T05:33:04.308Z,6.97
2022-10-21T05:35:32.348Z,6.45
2022-10-21T05:38:00.322Z,7.43
2022-10-21T05:40:29.780Z,6.72
2022-10-21T05:42:57.871Z,6.40
2022-10-21T05:45:26.972Z,6.78
2022-10-21T05:47:55.097Z,8.23
2022-10-21T05:50:23.393Z,7.65
2022-10-21T05:52:51.953Z,7.40
2022-10-21T05:55:20.568Z,6.88
2022-10-21T06:00:18.295Z,7.43
2022-10-21T06:02:46.324Z,6.70
2022-10-21T06:05:14.443Z,5.90
2022-10-21T06:07:42.591Z,6.43
2022-10-21T06:10:12.125Z,6.53
2022-10-21T06:12:40.385Z,7.57
2022-10-21T06:15:11.070Z,5.95
2022-10-21T06:17:39.467Z,6.05
2022-10-21T06:20:08.429Z,6.70
2022-10-21T06:22:36.497Z,5.60
2022-10-21T06:25:04.891Z,6.15
2022-10-21T06:27:33.050Z,7.65
2022-10-21T06:30:01.912Z,7.20
2022-10-21T06:32:31.639Z,7.32
2022-10-21T06:34:59.797Z,7.05
2022-10-21T06:37:27.800Z,6.50
2022-10-21T06:39:55.875Z,7.03
2022-10-21T06:42:23.878Z,7.22
2022-10-21T06:44:55.481Z,7.68
2022-10-21T06:47:25.969Z,7.78
2022-10-21T06:49:55.403Z,8.07
2022-10-21T06:52:23.527Z,9.52
2022-10-21T06:54:51.585Z,9.35
2022-10-21T06:57:19.647Z,7.88
2022-10-21T06:59:48.316Z,9.05
2022-10-21T07:02:16.365Z,9.60
2022-10-21T07:04:45.467Z,10.02
2022-10-21T07:07:14.880Z,10.23
2022-10-21T07:09:43.162Z,9.85
2022-10-21T07:12:11.549Z,10.40
2022-10-21T07:14:39.608Z,9.23
2022-10-21T07:17:07.639Z,10.05
2022-10-21T07:19:35.763Z,10.93
2022-10-21T07:22:03.821Z,16.52
2022-10-21T07:24:33.211Z,18.20
2022-10-21T07:27:01.257Z,25.38
2022-10-21T07:29:29.535Z,33.25
2022-10-21T07:31:58.593Z,36.97
2022-10-21T07:34:26.943Z,25.20
2022-10-21T07:36:54.984Z,27.58
2022-10-21T07:39:26.563Z,23.75
2022-10-21T07:41:57.269Z,14.60
2022-10-21T07:44:27.322Z,15.18
2022-10-21T07:46:55.874Z,14.35
2022-10-21T07:49:25.270Z,12.70
2022-10-21T07:51:54.234Z,14.00
2022-10-21T07:54:22.529Z,14.52
2022-10-21T07:56:52.535Z,14.38
2022-10-21T07:59:23.129Z,13.48
2022-10-21T08:01:52.878Z,13.68
2022-10-21T08:04:23.099Z,13.35
2022-10-21T08:06:51.159Z,16.10
2022-10-21T08:09:19.292Z,14.82
2022-10-21T08:11:47.622Z,13.38
2022-10-21T08:14:16.261Z,15.43
2022-10-21T08:16:45.664Z,14.32
2022-10-21T08:19:19.776Z,15.77
2022-10-21T08:21:48.374Z,15.95
2022-10-21T08:24:16.810Z,15.43
2022-10-21T08:26:44.841Z,15.00
2022-10-21T08:29:12.931Z,15.38
2022-10-21T08:31:41.067Z,16.52
2022-10-21T08:34:10.972Z,14.50
2022-10-21T08:36:39.721Z,13.20
2022-10-21T08:39:08.177Z,9.63
2022-10-21T08:41:58.029Z,9.85
2022-10-21T08:44:34.013Z,13.25
2022-10-21T08:47:11.090Z,11.38
2022-10-21T08:49:50.508Z,9.90
2022-10-21T08:52:22.776Z,9.50
2022-10-21T08:54:55.552Z,9.55
2022-10-21T08:57:24.118Z,7.25
2022-10-21T08:59:52.340Z,4.50
2022-10-21T09:02:35.828Z,4.80
2022-10-21T09:05:29.647Z,4.47
2022-10-21T09:08:07.002Z,3.20
2022-10-21T09:10:50.063Z,4.00
2022-10-21T09:13:26.388Z,4.03
2022-10-21T09:16:05.733Z,4.57
2022-10-21T09:18:47.842Z,3.42
2022-10-21T09:21:26.713Z,3.55
2022-10-21T09:24:02.038Z,3.20
2022-10-21T09:26:38.746Z,3.80
2022-10-21T09:29:26.725Z,4.15
2022-10-21T09:32:02.519Z,3.30
2022-10-21T09:34:41.696Z,3.42
2022-10-21T09:37:18.954Z,2.83
2022-10-21T09:39:50.129Z,3.00
2022-10-21T09:42:35.729Z,8.23
2022-10-21T09:45:10.656Z,6.82
2022-10-21T09:47:38.643Z,3.75
2022-10-21T09:50:08.101Z,4.15
2022-10-21T09:52:38.939Z,4.00
2022-10-21T09:55:12.928Z,3.55
2022-10-21T09:57:48.125Z,6.47
2022-10-21T10:00:16.353Z,2.10
2022-10-21T10:02:47.228Z,1.98
2022-10-21T10:05:34.769Z,2.42
2022-10-21T10:08:21.909Z,2.20
2022-10-21T10:10:49.992Z,1.83
2022-10-21T10:13:20.933Z,2.63
2022-10-21T10:15:48.988Z,2.25
2022-10-21T10:18:22.875Z,2.60
2022-10-21T10:21:06.251Z,2.75
2022-10-21T10:23:45.176Z,2.92
2022-10-21T10:26:23.540Z,3.00
2022-10-21T10:28:57.929Z,3.40
2022-10-21T10:31:32.520Z,2.63
2022-10-21T10:34:04.533Z,4.10
2022-10-21T10:36:35.919Z,3.67
2022-10-21T10:39:08.826Z,3.05
2022-10-21T10:41:39.874Z,3.70
2022-10-21T10:44:20.956Z,3.53
2022-10-21T10:46:55.719Z,3.50
2022-10-21T10:49:24.346Z,4.57
2022-10-21T10:52:06.928Z,4.30
2022-10-21T10:54:36.696Z,3.80
2022-10-21T10:57:07.730Z,2.75
2022-10-21T10:59:40.946Z,2.90
2022-10-21T11:02:37.487Z,2.80
2022-10-21T11:05:17.967Z,2.95
2022-10-21T11:07:49.652Z,2.78
2022-10-21T11:10:29.562Z,2.17
2022-10-21T11:12:57.911Z,3.17
2022-10-21T11:15:31.367Z,9.10
2022-10-21T11:18:17.017Z,6.85
2022-10-21T11:20:59.391Z,3.88
2022-10-21T11:23:54.336Z,3.83
2022-10-21T11:26:36.728Z,2.08
2022-10-21T11:29:17.393Z,2.10
2022-10-21T11:32:10.827Z,2.25
2022-10-21T11:34:51.500Z,1.83
2022-10-21T11:37:28.515Z,1.63
2022-10-21T11:40:04.459Z,1.67
2022-10-21T11:42:41.747Z,1.60
2022-10-21T11:45:49.368Z,2.20
2022-10-21T11:48:29.594Z,1.30
2022-10-21T11:51:06.191Z,2.03
2022-10-21T11:53:49.590Z,1.83
2022-10-21T11:56:27.039Z,1.88
2022-10-21T11:59:13.720Z,1.65
2022-10-21T12:01:51.939Z,1.70
2022-10-21T12:04:34.361Z,2.17
2022-10-21T12:07:15.565Z,1.52
2022-10-21T12:09:50.093Z,1.35
2022-10-21T12:12:23.619Z,1.45
2022-10-21T12:14:57.530Z,1.50
2022-10-21T12:17:26.286Z,1.80
2022-10-21T12:19:57.807Z,1.67
2022-10-21T12:22:27.667Z,1.60
2022-10-21T12:25:03.117Z,1.55
2022-10-21T12:27:36.579Z,1.50
2022-10-21T12:30:15.103Z,1.67
2022-10-21T12:32:54.050Z,1.65
2022-10-21T12:35:29.277Z,1.38
2022-10-21T12:38:20.314Z,1.65
2022-10-21T12:40:49.354Z,1.63
2022-10-21T12:43:22.341Z,1.45
2022-10-21T12:46:05.841Z,1.25
2022-10-21T12:48:38.103Z,1.27
2022-10-21T12:51:09.597Z,1.35
2022-10-21T12:53:40.948Z,1.10
2022-10-21T12:56:10.823Z,1.30
2022-10-21T12:58:42.297Z,1.42
2022-10-21T13:01:38.680Z,1.88
2022-10-21T13:04:19.321Z,1.30
2022-10-21T13:06:53.920Z,1.40
2022-10-21T13:09:36.703Z,1.40
2022-10-21T13:12:15.673Z,1.15
2022-10-21T13:14:45.908Z,1.27
2022-10-21T13:17:50.080Z,1.20
2022-10-21T13:20:47.149Z,1.33
2022-10-21T13:23:39.104Z,1.27
2022-10-21T13:26:15.017Z,1.20
2022-10-21T13:28:43.638Z,1.52
2022-10-21T13:31:22.048Z,1.75
2022-10-21T13:33:55.691Z,1.60
2022-10-21T13:39:09.457Z,1.63
2022-10-21T13:41:37.775Z,1.60
2022-10-21T13:44:08.132Z,2.13
2022-10-21T13:46:42.386Z,1.58
2022-10-21T13:49:27.804Z,1.98
2022-10-21T13:51:56.023Z,1.50
2022-10-21T13:54:24.057Z,1.67
2022-10-21T13:56:52.110Z,1.60
2022-10-21T13:59:24.042Z,1.63
2022-10-21T14:01:53.539Z,1.23
2022-10-21T14:04:23.475Z,1.50
2022-10-21T14:06:57.651Z,1.60
2022-10-21T14:09:30.096Z,1.45
2022-10-21T14:12:00.643Z,1.13
2022-10-21T14:14:30.349Z,1.60
2022-10-21T14:17:00.624Z,1.42
2022-10-21T14:19:32.436Z,1.40
2022-10-21T14:22:03.224Z,1.48
2022-10-21T14:24:37.560Z,1.80
2022-10-21T14:27:06.783Z,1.50
2022-10-21T14:29:36.797Z,1.38
2022-10-21T14:32:06.529Z,1.88
2022-10-21T14:34:36.624Z,1.90
2022-10-21T14:37:19.292Z,1.55
2022-10-21T14:39:47.803Z,1.45
2022-10-21T14:42:18.420Z,1.88
2022-10-21T14:44:48.268Z,1.60
2022-10-21T14:47:19.522Z,1.63
2022-10-21T14:49:49.541Z,1.00
2022-10-21T14:52:22.515Z,1.70
2022-10-21T14:54:55.725Z,1.70
2022-10-21T14:57:36.045Z,1.48
2022-10-21T15:00:06.770Z,1.70
2022-10-21T15:02:37.314Z,1.33
2022-10-21T15:05:21.790Z,1.27
2022-10-21T15:07:51.161Z,1.52
2022-10-21T15:10:20.618Z,1.60
2022-10-21T15:12:51.316Z,1.60
2022-10-21T15:15:51.022Z,1.15
2022-10-21T15:18:24.091Z,1.40
2022-10-21T15:20:58.722Z,1.38
2022-10-21T15:23:32.281Z,1.40
2022-10-21T15:26:03.631Z,1.30
2022-10-21T15:28:33.020Z,1.52
2022-10-21T15:31:02.333Z,1.98
2022-10-21T15:33:31.333Z,1.75
2022-10-21T15:36:04.353Z,1.70
2022-10-21T15:38:33.700Z,1.42
2022-10-21T15:41:01.785Z,1.83
2022-10-21T15:43:30.073Z,1.52
2022-10-21T15:45:58.209Z,1.80
2022-10-21T15:48:26.352Z,1.52
2022-10-21T15:50:57.182Z,1.50
2022-10-21T15:53:25.495Z,1.95
2022-10-21T15:55:55.699Z,1.50
2022-10-21T15:58:23.862Z,1.50
2022-10-21T16:00:52.159Z,1.40
2022-10-21T16:03:20.415Z,1.60
2022-10-21T16:05:48.642Z,1.67
2022-10-21T16:08:16.936Z,1.50
2022-10-21T16:10:47.787Z,1.20
2022-10-21T16:13:17.473Z,1.58
2022-10-21T16:15:45.676Z,2.20
2022-10-21T16:18:15.675Z,1.40
2022-10-21T16:20:44.774Z,1.70
2022-10-21T16:23:13.001Z,1.58
2022-10-21T16:25:41.220Z,1.55
2022-10-21T16:28:11.589Z,1.35
2022-10-21T16:30:41.957Z,2.13
2022-10-21T16:33:11.158Z,1.95
2022-10-21T16:35:39.754Z,1.52
2022-10-21T16:38:08.210Z,1.13
2022-10-21T16:40:36.987Z,1.73
2022-10-21T16:43:05.451Z,1.70
2022-10-21T16:45:34.143Z,1.27
2022-10-21T16:48:05.301Z,1.65
2022-10-21T16:50:39.308Z,1.17
2022-10-21T16:53:07.852Z,1.70
2022-10-21T16:55:36.057Z,1.27
2022-10-21T16:58:04.337Z,1.35
2022-10-21T17:00:32.552Z,1.23
2022-10-21T17:03:01.710Z,2.10
2022-10-21T17:05:31.573Z,1.80
2022-10-21T17:08:00.063Z,1.70
2022-10-21T17:10:28.605Z,1.73
2022-10-21T17:12:59.208Z,1.58
2022-10-21T17:15:28.218Z,1.83
2022-10-21T17:17:56.444Z,1.95
2022-10-21T17:20:40.914Z,2.03
2022-10-21T17:23:17.521Z,1.95
2022-10-21T17:25:46.153Z,1.75
2022-10-21T17:28:14.352Z,3.25
2022-10-21T17:30:42.883Z,2.03
2022-10-21T17:33:14.093Z,2.42
2022-10-21T17:35:42.713Z,2.30
2022-10-21T17:38:10.977Z,2.40
2022-10-21T17:40:40.500Z,2.10
2022-10-21T17:43:08.676Z,2.65
2022-10-21T17:45:37.320Z,2.80
2022-10-21T17:48:05.864Z,3.92
2022-10-21T17:50:36.273Z,3.17
2022-10-21T17:53:04.604Z,2.55
2022-10-21T17:55:32.889Z,2.75
2022-10-21T17:58:02.472Z,2.70
2022-10-21T18:00:30.719Z,2.92
2022-10-21T18:02:58.899Z,2.70
2022-10-21T18:05:27.082Z,2.95
2022-10-21T18:07:55.656Z,4.00
2022-10-21T18:10:23.919Z,2.45
2022-10-21T18:12:52.119Z,3.40
2022-10-21T18:15:25.177Z,2.67
2022-10-21T18:17:53.576Z,2.97
2022-10-21T18:20:22.084Z,3.30
2022-10-21T18:22:52.796Z,2.80
2022-10-21T18:25:20.982Z,6.65
2022-10-21T18:27:49.389Z,5.10
2022-10-21T18:30:17.704Z,6.68
2022-10-21T18:32:47.271Z,4.72
2022-10-21T18:35:16.699Z,3.80
2022-10-21T18:37:44.898Z,4.03
2022-10-21T18:40:13.275Z,3.53
2022-10-21T18:42:41.525Z,3.85
2022-10-21T18:45:10.609Z,3.95
2022-10-21T18:47:39.255Z,3.10
2022-10-21T18:50:10.950Z,3.92
2022-10-21T18:52:39.176Z,2.90
2022-10-21T18:55:07.777Z,3.58
2022-10-21T18:57:36.053Z,2.85
2022-10-21T19:00:04.889Z,3.13
2022-10-21T19:02:33.085Z,3.20
2022-10-21T19:05:02.441Z,2.80
2022-10-21T19:07:32.500Z,4.15
2022-10-21T19:10:00.668Z,2.92
2022-10-21T19:12:28.966Z,3.13
2022-10-21T19:14:57.136Z,2.92
2022-10-21T19:17:27.377Z,2.63
2022-10-21T19:19:55.519Z,2.97
2022-10-21T19:22:26.019Z,3.17
2022-10-21T19:24:55.934Z,4.07
2022-10-21T19:27:24.163Z,2.65
2022-10-21T19:29:52.661Z,2.60
2022-10-21T19:32:20.806Z,2.90
2022-10-21T19:34:48.980Z,3.25
2022-10-21T19:37:17.135Z,2.65
2022-10-21T19:39:45.330Z,4.40
2022-10-21T19:42:14.954Z,4.25
2022-10-21T19:44:43.096Z,3.35
2022-10-21T19:47:11.434Z,4.63
2022-10-21T19:49:39.885Z,2.90
2022-10-21T19:52:08.052Z,2.65
2022-10-21T19:54:36.186Z,3.38
2022-10-21T19:57:04.606Z,2.47
2022-10-21T19:59:34.160Z,3.13
2022-10-21T20:02:02.467Z,3.60
2022-10-21T20:04:33.790Z,3.90
2022-10-21T20:07:03.887Z,6.38
2022-10-21T20:09:35.030Z,6.57
2022-10-21T20:12:06.186Z,5.68
2022-10-21T20:14:35.777Z,4.60
2022-10-21T20:17:04.103Z,5.88
2022-10-21T20:19:32.281Z,5.10
2022-10-21T20:22:00.532Z,4.90
2022-10-21T20:24:28.659Z,6.47
2022-10-21T20:26:59.772Z,7.28
2022-10-21T20:29:30.364Z,6.47
2022-10-21T20:32:00.008Z,5.30
2022-10-21T20:34:28.543Z,4.15
2022-10-21T20:36:56.746Z,7.95
2022-10-21T20:39:24.889Z,5.30
2022-10-21T20:41:53.247Z,4.13
2022-10-21T20:44:21.351Z,4.65
2022-10-21T20:46:49.572Z,4.85
2022-10-21T20:49:19.081Z,5.35
2022-10-21T20:51:47.293Z,5.50
2022-10-21T20:54:17.669Z,5.05
2022-10-21T20:56:46.319Z,6.53
2022-10-21T20:59:16.240Z,5.90
2022-10-21T21:01:46.796Z,6.43
2022-10-21T21:04:16.937Z,8.00
2022-10-21T21:06:48.237Z,7.38
2022-10-21T21:09:57.452Z,10.27
2022-10-21T21:12:08.019Z,9.63
2022-10-21T21:14:36.290Z,8.68
2022-10-21T21:17:05.043Z,10.07
2022-10-21T21:19:33.639Z,9.73
2022-10-21T21:22:03.742Z,9.18
2022-10-21T21:24:32.000Z,8.63
2022-10-21T21:27:00.197Z,9.85
2022-10-21T21:29:28.460Z,9.93
2022-10-21T21:31:56.736Z,7.30
2022-10-21T21:34:28.261Z,6.45
2022-10-21T21:36:56.452Z,8.45
2022-10-21T21:39:26.287Z,8.98
2022-10-21T21:41:54.781Z,9.48
2022-10-21T21:44:22.821Z,8.32
2022-10-21T21:46:50.819Z,7.05
2022-10-21T21:49:18.789Z,8.02
2022-10-21T21:51:46.795Z,6.60
2022-10-21T21:54:15.564Z,7.93
2022-10-21T21:56:45.389Z,7.32
2022-10-21T21:59:13.408Z,9.32
2022-10-21T22:01:41.491Z,6.30
2022-10-21T22:04:09.549Z,9.13
2022-10-21T22:06:38.911Z,8.73
2022-10-21T22:09:11.462Z,8.13
2022-10-21T22:11:39.826Z,6.80
2022-10-21T22:14:09.235Z,5.15
2022-10-21T22:16:37.413Z,8.13
2022-10-21T22:19:05.656Z,8.43
2022-10-21T22:21:33.739Z,7.63
2022-10-21T22:24:01.695Z,11.93
2022-10-21T22:26:29.878Z,9.70
2022-10-21T22:28:58.240Z,12.32
2022-10-21T22:31:30.723Z,8.77
2022-10-21T22:34:01.057Z,11.27
2022-10-21T22:36:29.140Z,11.05
2022-10-21T22:38:57.340Z,7.93
2022-10-21T22:41:25.464Z,6.47
2022-10-21T22:43:53.489Z,7.63
2022-10-21T22:46:33.035Z,4.53
2022-10-21T22:49:03.904Z,5.97
2022-10-21T22:51:32.149Z,6.35
2022-10-21T22:54:01.293Z,10.63
2022-10-21T22:56:29.543Z,4.00
2022-10-21T22:58:58.116Z,4.22
2022-10-21T23:01:28.871Z,4.35
2022-10-21T23:03:57.889Z,4.03
2022-10-21T23:06:27.282Z,4.20
2022-10-21T23:08:55.631Z,4.10
2022-10-21T23:11:23.965Z,6.72
2022-10-21T23:14:02.530Z,4.43
2022-10-21T23:16:31.070Z,8.55
2022-10-21T23:18:59.181Z,4.57
2022-10-21T23:21:28.707Z,4.90
2022-10-21T23:23:57.131Z,4.60
2022-10-21T23:26:25.221Z,6.18
2022-10-21T23:28:53.287Z,6.97
2022-10-21T23:31:21.500Z,6.32
2022-10-21T23:33:49.656Z,4.80
2022-10-21T23:36:17.803Z,5.07
2022-10-21T23:38:47.140Z,5.00
2022-10-21T23:41:15.390Z,4.55
2022-10-21T23:43:43.421Z,4.57
2022-10-21T23:46:11.417Z,5.10
2022-10-21T23:48:39.409Z,4.57
2022-10-21T23:51:07.428Z,4.15
2022-10-21T23:53:35.493Z,4.75
2022-10-21T23:56:05.161Z,5.10
2022-10-21T23:58:33.252Z,7.18
